Time;durP1;ratioP1;P1;durP2;ratioP2;P2;SDS_P1;SDS_P2;PMS_P1;PMS_P2;Temp;Humidity;BMP_temperature;BMP_pressure;BME280_temperature;BME280_humidity;BME280_pressure;Samples;Min_cycle;Max_cycle;Signal;HPM_P1;HPM_P2
2021/01/01 00:01:32;;;;;;;23.53;12.33;;;;;;;2.31;100.00;94916.53;5102169;28;20464;-83
2021/01/01 00:03:59;;;;;;;21.33;13.40;;;;;;;2.36;100.00;94917.59;5101605;28;20444;-82
2021/01/01 00:06:25;;;;;;;18.57;11.60;;;;;;;2.37;100.00;94914.44;5101855;28;20984;-82
2021/01/01 00:08:53;;;;;;;19.60;11.67;;;;;;;2.45;100.00;94919.81;5101509;28;20437;-82
2021/01/01 00:11:19;;;;;;;21.03;13.00;;;;;;;2.45;100.00;94914.47;5098583;28;21043;-78
2021/01/01 00:13:46;;;;;;;24.93;12.90;;;;;;;2.43;100.00;94908.97;5097391;28;20497;-78
2021/01/01 00:16:13;;;;;;;21.13;13.87;;;;;;;2.44;100.00;94908.47;5096782;28;20550;-79
2021/01/01 00:18:40;;;;;;;20.63;11.60;;;;;;;2.49;100.00;94909.56;5097086;28;20436;-79
2021/01/01 00:21:06;;;;;;;18.60;11.50;;;;;;;2.49;100.00;94909.56;5096302;28;20933;-79
2021/01/01 00:23:33;;;;;;;16.53;10.90;;;;;;;2.50;100.00;94897.69;5096483;28;20917;-79
2021/01/01 00:26:00;;;;;;;17.20;11.13;;;;;;;2.47;100.00;94902.09;5098018;28;20539;-79
2021/01/01 00:28:27;;;;;;;16.83;11.20;;;;;;;2.55;100.00;94908.19;5098181;28;20444;-80
2021/01/01 00:30:53;;;;;;;16.63;11.00;;;;;;;2.56;100.00;94904.28;5098561;28;20425;-79
2021/01/01 00:33:20;;;;;;;20.57;11.17;;;;;;;2.51;100.00;94907.78;5097704;28;20988;-79
2021/01/01 00:35:46;;;;;;;18.10;11.17;;;;;;;2.55;100.00;94908.19;5098937;28;20488;-80
2021/01/01 00:38:13;;;;;;;16.57;12.43;;;;;;;2.53;100.00;94909.94;5098911;28;20445;-80
2021/01/01 00:40:39;;;;;;;19.47;11.13;;;;;;;2.52;100.00;94906.56;5099457;28;20812;-80
2021/01/01 00:43:07;;;;;;;15.97;10.27;;;;;;;2.61;100.00;94916.03;5100740;28;20465;-82
2021/01/01 00:45:34;;;;;;;14.63;9.83;;;;;;;2.54;100.00;94916.66;5102174;28;20444;-83
2021/01/01 00:48:00;;;;;;;17.77;10.93;;;;;;;2.52;100.00;94916.50;5101212;28;20589;-80
2021/01/01 00:50:26;;;;;;;15.33;10.70;;;;;;;2.50;100.00;94916.31;5099827;28;20937;-80
2021/01/01 00:52:53;;;;;;;14.10;9.83;;;;;;;2.52;100.00;94919.16;5098900;28;20552;-80
2021/01/01 00:55:19;;;;;;;14.80;11.10;;;;;;;2.49;100.00;94918.25;5099115;28;20444;-80
2021/01/01 00:57:46;;;;;;;13.83;9.97;;;;;;;2.48;100.00;94916.81;5098776;28;20444;-80
2021/01/01 01:00:14;;;;;;;15.40;10.30;;;;;;;2.46;100.00;94919.28;5098926;28;20479;-80
2021/01/01 01:02:40;;;;;;;15.23;9.97;;;;;;;2.49;100.00;94925.53;5098147;28;20990;-80
2021/01/01 01:05:08;;;;;;;15.83;10.47;;;;;;;2.49;100.00;94933.50;5098937;28;20447;-80
2021/01/01 01:07:35;;;;;;;14.90;8.37;;;;;;;2.55;100.00;94939.41;5098172;28;20574;-80
2021/01/01 01:10:01;;;;;;;15.20;9.83;;;;;;;2.55;100.00;94939.41;5098613;28;20444;-80
2021/01/01 01:12:29;;;;;;;16.53;9.90;;;;;;;2.58;100.00;94939.09;5098669;28;20955;-80
2021/01/01 01:14:56;;;;;;;16.00;10.63;;;;;;;2.61;100.00;94951.34;5099728;28;20522;-80
2021/01/01 01:17:24;;;;;;;11.40;8.27;;;;;;;2.65;100.00;94953.69;5099874;28;20576;-80
2021/01/01 01:19:50;;;;;;;11.50;8.50;;;;;;;2.62;100.00;94952.06;5099107;28;20440;-83
2021/01/01 01:22:17;;;;;;;13.47;8.67;;;;;;;2.65;100.00;94956.34;5098959;28;20464;-83
2021/01/01 01:24:43;;;;;;;12.10;8.50;;;;;;;2.65;100.00;94953.69;5099595;28;20516;-81
2021/01/01 01:27:09;;;;;;;16.50;10.27;;;;;;;2.69;100.00;94964.72;5099274;28;20500;-82
2021/01/01 01:29:36;;;;;;;12.90;8.53;;;;;;;2.68;100.00;94964.00;5100302;28;20971;-80
2021/01/01 01:32:02;;;;;;;12.70;9.13;;;;;;;2.74;100.00;94971.84;5097808;28;20475;-80
2021/01/01 01:34:30;;;;;;;12.90;8.77;;;;;;;2.74;100.00;94965.81;5098032;28;20805;-80
2021/01/01 01:36:56;;;;;;;15.50;8.73;;;;;;;2.77;100.00;94978.09;5099491;28;20484;-80
2021/01/01 01:39:23;;;;;;;13.30;10.00;;;;;;;2.77;100.00;94972.75;5119532;28;20454;-82
2021/01/01 01:41:49;;;;;;;16.43;10.00;;;;;;;2.80;100.00;94975.09;5119373;28;20474;-82
2021/01/01 01:44:16;;;;;;;15.17;8.90;;;;;;;2.77;100.00;94968.16;5119208;28;20417;-82
2021/01/01 01:46:43;;;;;;;15.70;9.10;;;;;;;2.77;100.00;94975.41;5119228;28;20431;-83
2021/01/01 01:49:14;;;;;;;15.40;9.90;;;;;;;2.78;100.00;94972.25;5101390;28;20458;-79
2021/01/01 01:51:46;;;;;;;14.73;10.10;;;;;;;2.87;100.00;94973.72;5096167;28;20471;-78
2021/01/01 01:54:13;;;;;;;13.07;8.83;;;;;;;2.82;100.00;94975.28;5097002;28;20818;-80
2021/01/01 01:56:41;;;;;;;15.47;9.40;;;;;;;2.90;100.00;94976.06;5096290;28;20541;-79
2021/01/01 01:59:08;;;;;;;15.53;9.73;;;;;;;2.93;100.00;94983.00;5097373;28;20457;-80
2021/01/01 02:01:34;;;;;;;16.73;9.93;;;;;;;2.92;99.97;94988.84;5098305;28;20472;-78
2021/01/01 02:04:01;;;;;;;12.50;8.73;;;;;;;2.90;100.00;94984.03;5090734;28;20511;-82
2021/01/01 02:06:28;;;;;;;16.00;9.20;;;;;;;2.96;99.90;94987.28;5082071;28;20416;-82
2021/01/01 02:08:55;;;;;;;13.07;8.73;;;;;;;2.92;99.78;94984.22;5080103;28;20519;-82
2021/01/01 02:11:23;;;;;;;15.97;11.00;;;;;;;2.91;100.00;94990.81;5079965;28;20448;-82
2021/01/01 02:13:53;;;;;;;14.67;9.20;;;;;;;3.00;99.59;94998.31;5078587;28;20468;-82
2021/01/01 02:16:20;;;;;;;16.50;9.60;;;;;;;2.96;99.37;94991.91;5081943;28;20480;-80
2021/01/01 02:18:47;;;;;;;15.90;9.80;;;;;;;3.01;99.80;94999.03;5084722;28;20448;-81
2021/01/01 02:21:15;;;;;;;14.27;9.80;;;;;;;3.00;99.43;94997.59;5085012;28;20434;-82
2021/01/01 02:23:43;;;;;;;17.90;10.80;;;;;;;2.98;99.42;95002.72;5081734;28;20429;-83
2021/01/01 02:26:10;;;;;;;17.03;10.43;;;;;;;2.99;99.58;95001.50;5083869;28;20528;-83
2021/01/01 02:28:36;;;;;;;16.37;10.03;;;;;;;2.99;99.17;95006.84;5080873;28;20558;-79
2021/01/01 02:31:03;;;;;;;14.13;9.50;;;;;;;3.06;99.46;95000.84;5081406;28;20425;-80
2021/01/01 02:33:29;;;;;;;15.30;10.40;;;;;;;3.07;99.08;94996.94;5081563;28;20437;-79
2021/01/01 02:35:56;;;;;;;15.80;10.60;;;;;;;3.12;98.74;95004.09;5084884;28;20819;-81
2021/01/01 02:38:22;;;;;;;14.50;9.47;;;;;;;3.04;98.79;95005.97;5083739;28;20418;-81
2021/01/01 02:40:50;;;;;;;17.60;11.03;;;;;;;2.97;99.39;95007.38;5081456;28;20453;-83
2021/01/01 02:43:16;;;;;;;17.20;10.70;;;;;;;3.00;99.45;95011.66;5081731;28;20594;-82
2021/01/01 02:45:43;;;;;;;16.70;9.73;;;;;;;2.98;99.40;95016.03;5082484;28;20938;-83
2021/01/01 02:48:14;;;;;;;17.03;11.67;;;;;;;2.92;99.54;95018.13;5081315;28;20456;-82
2021/01/01 02:50:41;;;;;;;14.30;10.53;;;;;;;2.96;100.00;95021.91;5081344;28;20588;-78
2021/01/01 02:53:08;;;;;;;15.40;10.43;;;;;;;2.96;100.00;95015.88;5080687;28;21012;-79
2021/01/01 02:55:35;;;;;;;20.10;12.93;;;;;;;3.03;99.63;95015.94;5080758;28;20437;-80
2021/01/01 02:58:04;;;;;;;19.80;11.43;;;;;;;3.07;99.49;95013.63;5080007;28;20448;-79
2021/01/01 03:00:31;;;;;;;16.20;10.87;;;;;;;3.08;99.56;95020.41;5079437;28;20445;-79
2021/01/01 03:02:58;;;;;;;16.60;9.30;;;;;;;3.11;99.68;95022.00;5079095;28;20447;-79
2021/01/01 03:05:24;;;;;;;18.87;10.90;;;;;;;3.10;99.56;95022.56;5079687;28;20441;-79
2021/01/01 03:07:51;;;;;;;18.50;11.10;;;;;;;3.12;99.59;95025.41;5079613;28;20445;-79
2021/01/01 03:10:17;;;;;;;17.37;10.67;;;;;;;3.20;99.09;95026.16;5080391;28;20445;-83
2021/01/01 03:12:44;;;;;;;20.50;12.27;;;;;;;3.32;97.78;95018.59;5090887;28;20470;-81
2021/01/01 03:15:12;;;;;;;17.50;11.00;;;;;;;3.29;98.03;95028.34;5101823;28;20436;-83
2021/01/01 03:17:39;;;;;;;16.50;11.40;;;;;;;3.20;97.93;95018.88;5101668;28;20457;-82
2021/01/01 03:20:06;;;;;;;17.40;10.37;;;;;;;3.16;97.89;95031.13;5101684;28;20432;-81
2021/01/01 03:22:33;;;;;;;17.33;10.70;;;;;;;3.03;99.10;95023.94;5099947;28;20465;-80
2021/01/01 03:24:59;;;;;;;17.83;11.50;;;;;;;3.23;98.69;95028.47;5077985;28;20445;-79
2021/01/01 03:27:25;;;;;;;18.50;11.70;;;;;;;3.10;98.95;95028.56;5076009;28;21007;-81
2021/01/01 03:29:52;;;;;;;16.00;10.77;;;;;;;3.06;99.27;95027.50;5076938;28;20462;-80
2021/01/01 03:32:19;;;;;;;17.17;11.87;;;;;;;3.00;99.45;95030.28;5077657;28;20905;-81
2021/01/01 03:34:45;;;;;;;19.83;12.70;;;;;;;2.99;99.94;95028.84;5078708;28;20433;-81
2021/01/01 03:37:12;;;;;;;20.20;12.30;;;;;;;2.98;99.55;95029.38;5078089;28;20512;-81
2021/01/01 03:39:38;;;;;;;16.97;11.73;;;;;;;2.85;100.00;95024.84;5078217;28;20444;-81
2021/01/01 03:42:09;;;;;;;19.50;12.77;;;;;;;2.74;100.00;95027.78;5078214;28;20481;-83
2021/01/01 03:44:35;;;;;;;23.70;12.57;;;;;;;2.70;100.00;95028.09;5078062;28;20487;-83
2021/01/01 03:47:02;;;;;;;23.33;13.60;;;;;;;2.78;100.00;95022.84;5078127;28;20453;-83
2021/01/01 03:49:29;;;;;;;22.60;12.43;;;;;;;2.84;100.00;95028.03;5077528;28;20433;-83
2021/01/01 03:51:56;;;;;;;21.57;13.40;;;;;;;2.87;100.00;95022.38;5087308;28;20465;-83
2021/01/01 03:54:22;;;;;;;22.73;13.03;;;;;;;2.86;100.00;95030.88;5078596;28;20449;-83
2021/01/01 03:56:49;;;;;;;21.57;13.37;;;;;;;3.02;100.00;95027.09;5078693;28;20473;-79
2021/01/01 03:59:15;;;;;;;18.07;12.00;;;;;;;2.95;100.00;95025.81;5079414;28;20449;-81
2021/01/01 04:01:41;;;;;;;19.30;12.67;;;;;;;2.96;100.00;95026.53;5079098;28;20465;-81
2021/01/01 04:04:08;;;;;;;17.30;11.50;;;;;;;2.89;100.00;95019.91;5079867;28;20449;-81
2021/01/01 04:06:35;;;;;;;20.87;13.40;;;;;;;2.83;100.00;95026.59;5082106;28;20450;-79
2021/01/01 04:09:01;;;;;;;22.77;12.60;;;;;;;2.86;100.00;95020.22;5077096;28;20566;-79
2021/01/01 04:11:28;;;;;;;26.33;14.57;;;;;;;2.81;100.00;95019.13;5077022;28;20461;-79
2021/01/01 04:13:54;;;;;;;23.83;13.10;;;;;;;2.79;100.00;95018.94;5078060;28;20562;-83
2021/01/01 04:16:22;;;;;;;20.17;12.50;;;;;;;2.77;100.00;95018.75;5078508;28;20480;-83
2021/01/01 04:18:48;;;;;;;23.83;15.00;;;;;;;2.74;100.00;95022.44;5078369;28;20437;-83
2021/01/01 04:21:14;;;;;;;25.83;14.67;;;;;;;2.74;100.00;95019.06;5079591;28;20491;-83
2021/01/01 04:23:41;;;;;;;32.07;14.10;;;;;;;2.74;100.00;95025.09;5078908;28;20526;-82
2021/01/01 04:26:10;;;;;;;26.40;14.17;;;;;;;2.80;100.00;95022.31;5079178;28;20441;-80
2021/01/01 04:28:37;;;;;;;23.50;13.57;;;;;;;2.82;100.00;95031.19;5078421;28;20457;-80
2021/01/01 04:31:03;;;;;;;21.20;13.97;;;;;;;2.85;100.00;95029.47;5078787;28;20910;-80
2021/01/01 04:33:30;;;;;;;27.37;14.83;;;;;;;2.88;100.00;95033.75;5078007;28;20442;-80
2021/01/01 04:35:57;;;;;;;26.17;15.13;;;;;;;2.93;100.00;95030.22;5077578;28;20460;-79
2021/01/01 04:38:23;;;;;;;24.37;14.67;;;;;;;3.00;100.00;95029.56;5076972;28;20545;-79
2021/01/01 04:40:52;;;;;;;31.07;17.00;;;;;;;2.80;100.00;95032.97;5077815;28;20434;-79
2021/01/01 04:43:18;;;;;;;30.73;16.77;;;;;;;2.72;100.00;95028.28;5077329;28;20977;-79
2021/01/01 04:45:45;;;;;;;37.83;22.77;;;;;;;2.64;100.00;95030.19;5077255;28;20453;-79
2021/01/01 04:48:13;;;;;;;44.83;22.40;;;;;;;2.63;100.00;95036.72;5077247;28;20808;-79
2021/01/01 04:50:39;;;;;;;28.70;17.17;;;;;;;2.82;100.00;95036.53;5077490;28;20448;-79
2021/01/01 04:53:09;;;;;;;30.20;17.60;;;;;;;2.91;100.00;95041.41;5077826;28;20496;-79
2021/01/01 04:55:37;;;;;;;27.73;17.07;;;;;;;2.92;100.00;95039.44;5078269;28;20536;-83
2021/01/01 04:58:04;;;;;;;23.10;14.27;;;;;;;2.91;100.00;95036.09;5079011;28;20441;-83
2021/01/01 05:00:32;;;;;;;29.33;15.07;;;;;;;2.74;100.00;95035.75;5077647;28;20446;-80
2021/01/01 05:02:59;;;;;;;23.77;14.63;;;;;;;2.75;100.00;95034.53;5078282;28;20449;-80
2021/01/01 05:05:29;;;;;;;23.63;15.17;;;;;;;2.78;100.00;95040.75;5078415;28;20438;-80
2021/01/01 05:07:55;;;;;;;24.80;13.63;;;;;;;2.74;100.00;95038.44;5078786;28;20419;-82
2021/01/01 05:10:22;;;;;;;27.73;15.03;;;;;;;2.72;100.00;95051.56;5082703;28;20534;-81
2021/01/01 05:12:49;;;;;;;26.20;15.50;;;;;;;2.80;100.00;95046.28;5099449;28;20473;-79
2021/01/01 05:15:33;;;;;;;27.87;16.00;;;;;;;2.78;100.00;95049.47;5099544;28;20434;-80
2021/01/01 05:18:00;;;;;;;25.00;13.70;;;;;;;2.80;100.00;95046.28;5099456;28;20414;-79
2021/01/01 05:20:28;;;;;;;25.70;15.90;;;;;;;2.84;100.00;95050.06;5099467;28;20493;-79
2021/01/01 05:22:57;;;;;;;27.50;16.13;;;;;;;2.76;100.00;95051.94;5079104;28;20499;-83
2021/01/01 05:25:25;;;;;;;26.90;14.27;;;;;;;2.74;100.00;95048.34;5078646;28;20419;-80
2021/01/01 05:27:59;;;;;;;23.50;14.30;;;;;;;2.75;100.00;95047.84;5079069;28;20502;-80
2021/01/01 05:30:31;;;;;;;23.67;14.87;;;;;;;2.80;100.00;95054.97;5078498;28;20456;-80
2021/01/01 05:32:59;;;;;;;24.63;14.30;;;;;;;2.84;100.00;95060.72;5079461;28;20523;-80
2021/01/01 05:35:27;;;;;;;26.23;15.07;;;;;;;2.89;100.00;95056.47;5078890;28;20464;-80
2021/01/01 05:37:54;;;;;;;28.77;15.80;;;;;;;2.79;100.00;95058.88;5079107;28;20456;-80
2021/01/01 05:40:29;;;;;;;25.33;15.50;;;;;;;2.83;100.00;95059.28;5079290;28;20437;-80
2021/01/01 05:42:56;;;;;;;27.30;16.10;;;;;;;2.99;100.00;95066.16;5079317;28;20902;-80
2021/01/01 05:45:26;;;;;;;27.83;16.20;;;;;;;2.92;100.00;95066.09;5078550;28;20437;-80
2021/01/01 05:48:04;;;;;;;28.83;16.33;;;;;;;2.70;100.00;95067.31;5078482;28;20487;-80
2021/01/01 05:50:31;;;;;;;26.00;15.93;;;;;;;2.64;100.00;95070.13;5078118;28;20450;-80
2021/01/01 05:53:11;;;;;;;28.93;16.43;;;;;;;2.72;100.00;95080.84;5078596;28;20477;-80
2021/01/01 05:55:38;;;;;;;27.40;14.87;;;;;;;2.86;100.00;95076.88;5077955;28;20815;-80
2021/01/01 05:58:17;;;;;;;20.97;14.43;;;;;;;2.85;100.00;95077.41;5077958;28;20445;-80
2021/01/01 06:00:43;;;;;;;25.17;13.97;;;;;;;2.62;100.00;95077.19;5079293;28;20520;-82
2021/01/01 06:03:19;;;;;;;26.73;15.47;;;;;;;2.49;100.00;95069.97;5078677;28;20476;-83
2021/01/01 06:05:47;;;;;;;26.17;14.60;;;;;;;2.54;100.00;95074.44;5079049;28;20443;-80
2021/01/01 06:08:15;;;;;;;24.90;13.80;;;;;;;2.69;100.00;95082.56;5078703;28;20448;-80
2021/01/01 06:10:49;;;;;;;25.50;14.57;;;;;;;2.72;100.00;95081.53;5078885;28;20445;-82
2021/01/01 06:13:18;;;;;;;27.87;14.93;;;;;;;2.64;100.00;95083.44;5076953;28;20606;-79
2021/01/01 06:15:56;;;;;;;25.43;14.30;;;;;;;2.82;100.00;95089.78;5075443;28;20445;-79
2021/01/01 06:18:27;;;;;;;28.60;16.50;;;;;;;2.76;100.00;95091.19;5076132;28;20914;-79
2021/01/01 06:20:58;;;;;;;17.23;10.73;;;;;;;2.80;100.00;95100.25;5077009;28;20406;-80
2021/01/01 06:23:32;;;;;;;19.23;11.63;;;;;;;2.69;100.00;95103.19;5089912;28;20472;-80
2021/01/01 06:25:59;;;;;;;21.73;11.07;;;;;;;2.53;100.00;95104.97;5098548;28;20433;-83
2021/01/01 06:28:26;;;;;;;15.80;10.77;;;;;;;2.53;100.00;95109.59;5099517;28;20444;-83
2021/01/01 06:30:54;;;;;;;18.50;9.53;;;;;;;2.35;100.00;95118.44;5099058;28;20440;-83
2021/01/01 06:33:21;;;;;;;14.77;9.63;;;;;;;2.39;100.00;95124.16;5098570;28;20463;-83
2021/01/01 06:35:49;;;;;;;13.60;8.13;;;;;;;2.28;100.00;95127.03;5098331;28;20445;-83
2021/01/01 06:38:35;;;;;;;18.10;9.70;;;;;;;2.15;100.00;95122.47;5098225;28;20440;-80
2021/01/01 06:41:01;;;;;;;13.53;9.20;;;;;;;2.11;100.00;95128.09;5097436;28;20492;-80
2021/01/01 06:43:48;;;;;;;14.03;8.90;;;;;;;2.11;100.00;95130.03;5096835;28;20472;-80
2021/01/01 06:46:14;;;;;;;14.77;9.83;;;;;;;2.01;100.00;95131.69;5098007;28;20661;-81
2021/01/01 06:48:41;;;;;;;15.23;10.00;;;;;;;2.04;100.00;95139.34;5097496;28;20455;-80
2021/01/01 06:51:14;;;;;;;17.20;9.97;;;;;;;1.96;100.00;95146.53;5096956;28;20450;-80
2021/01/01 06:53:41;;;;;;;13.40;8.87;;;;;;;2.10;100.00;95144.56;5097392;28;20437;-80
2021/01/01 06:56:09;;;;;;;17.00;10.50;;;;;;;2.09;100.00;95143.88;5097215;28;20520;-80
2021/01/01 06:58:35;;;;;;;15.23;9.60;;;;;;;2.11;100.00;95146.72;5097202;28;20441;-80
2021/01/01 07:01:02;;;;;;;10.30;7.63;;;;;;;2.10;100.00;95139.94;5096699;28;20578;-80
2021/01/01 07:03:39;;;;;;;15.20;10.63;;;;;;;2.27;100.00;95147.63;5101440;28;20429;-80
2021/01/01 07:06:38;;;;;;;10.63;7.47;;;;;;;2.26;100.00;95151.50;5100127;28;20511;-79
2021/01/01 07:09:12;;;;;;;12.80;9.33;;;;;;;2.25;100.00;95152.03;5099694;28;20440;-80
2021/01/01 07:11:43;;;;;;;9.40;7.20;;;;;;;2.27;100.00;95157.53;5099696;28;20518;-80
2021/01/01 07:14:15;;;;;;;13.60;8.00;;;;;;;2.21;100.00;95157.66;5099687;28;20425;-79
2021/01/01 07:16:44;;;;;;;10.43;6.67;;;;;;;2.34;100.00;95162.25;5099770;28;20507;-79
2021/01/01 07:19:11;;;;;;;11.67;7.60;;;;;;;2.29;100.00;95165.75;5099456;28;20448;-79
2021/01/01 07:21:39;;;;;;;10.47;6.60;;;;;;;2.29;100.00;95165.75;5101435;28;20464;-83
2021/01/01 07:24:07;;;;;;;8.37;5.60;;;;;;;2.28;100.00;95161.63;5102039;28;20473;-80
2021/01/01 07:26:33;;;;;;;9.50;6.37;;;;;;;2.30;100.00;95173.19;5098963;28;20446;-78
2021/01/01 07:29:01;;;;;;;8.30;5.93;;;;;;;2.30;100.00;95177.81;5099077;28;20464;-78
2021/01/01 07:31:28;;;;;;;9.60;6.70;;;;;;;2.27;100.00;95176.16;5099287;28;20468;-80
2021/01/01 07:33:55;;;;;;;9.93;7.00;;;;;;;2.43;100.00;95183.09;5100177;28;20534;-80
2021/01/01 07:36:22;;;;;;;8.17;5.93;;;;;;;2.42;100.00;95184.34;5099761;28;20541;-80
2021/01/01 07:38:50;;;;;;;8.47;5.53;;;;;;;2.37;100.00;95203.78;5098980;28;20455;-80
2021/01/01 07:41:23;;;;;;;9.83;6.50;;;;;;;2.36;100.00;95194.38;5099237;28;20452;-81
2021/01/01 07:43:50;;;;;;;6.73;5.37;;;;;;;2.25;100.00;95199.91;5097334;28;20444;-79
2021/01/01 07:46:17;;;;;;;8.93;6.40;;;;;;;2.22;100.00;95199.00;5097609;28;20440;-79
2021/01/01 07:48:43;;;;;;;7.80;5.70;;;;;;;2.27;100.00;95195.50;5099509;28;20940;-79
2021/01/01 07:51:11;;;;;;;10.53;6.50;;;;;;;2.27;100.00;95200.13;5098557;28;20945;-79
2021/01/01 07:53:38;;;;;;;8.03;5.90;;;;;;;2.18;100.00;95198.59;5099106;28;20440;-82
2021/01/01 07:56:07;;;;;;;9.87;6.40;;;;;;;2.28;100.00;95204.94;5099182;28;20666;-83
2021/01/01 07:58:34;;;;;;;8.97;6.23;;;;;;;2.31;100.00;95209.22;5099018;28;20437;-80
2021/01/01 08:01:03;;;;;;;11.13;6.33;;;;;;;2.28;100.00;95204.22;5099244;28;20447;-81
2021/01/01 08:03:31;;;;;;;8.53;5.97;;;;;;;2.19;100.00;95213.34;5098578;28;20766;-81
2021/01/01 08:05:59;;;;;;;10.67;6.90;;;;;;;2.26;100.00;95215.34;5097460;28;20990;-80
2021/01/01 08:08:25;;;;;;;6.93;4.73;;;;;;;2.29;100.00;95218.97;5097852;28;20819;-83
2021/01/01 08:10:53;;;;;;;7.07;5.20;;;;;;;2.14;100.00;95217.50;5101270;28;20441;-81
2021/01/01 08:13:22;;;;;;;9.00;6.20;;;;;;;2.21;100.00;95220.78;5107805;28;20467;-79
2021/01/01 08:15:50;;;;;;;11.30;6.20;;;;;;;2.23;100.00;95227.03;5098905;28;20918;-80
2021/01/01 08:18:18;;;;;;;6.23;4.60;;;;;;;2.28;100.00;95222.84;5100044;28;20429;-80
2021/01/01 08:20:47;;;;;;;5.63;5.03;;;;;;;2.40;99.64;95232.03;5099338;28;20506;-80
2021/01/01 08:23:16;;;;;;;6.80;4.23;;;;;;;2.32;98.86;95231.94;5097995;28;20517;-78
2021/01/01 08:25:43;;;;;;;7.37;4.40;;;;;;;2.35;98.88;95224.91;5096438;28;20985;-78
2021/01/01 08:28:10;;;;;;;8.50;5.20;;;;;;;2.27;99.01;95234.69;5096980;28;20520;-78
2021/01/01 08:30:39;;;;;;;7.07;5.30;;;;;;;2.43;98.88;95236.34;5097416;28;20800;-77
2021/01/01 08:33:06;;;;;;;7.80;4.40;;;;;;;2.37;99.08;95243.72;5096597;28;20457;-78
2021/01/01 08:35:33;;;;;;;8.50;4.40;;;;;;;2.36;99.77;95240.34;5095510;28;20493;-78
2021/01/01 08:38:00;;;;;;;9.23;5.33;;;;;;;2.40;99.80;95253.34;5096401;28;20487;-79
2021/01/01 08:40:26;;;;;;;7.73;5.10;;;;;;;2.49;99.15;95250.97;5096524;28;20937;-79
2021/01/01 08:42:55;;;;;;;6.73;4.77;;;;;;;2.49;99.38;95256.31;5096288;28;20439;-79
2021/01/01 08:45:22;;;;;;;7.40;5.07;;;;;;;2.43;99.10;95266.34;5088916;28;20472;-79
2021/01/01 08:47:50;;;;;;;7.60;4.80;;;;;;;2.51;99.41;95263.75;5100077;28;20417;-81
2021/01/01 08:50:24;;;;;;;9.57;5.00;;;;;;;2.56;99.09;95260.28;5100014;28;20418;-81
2021/01/01 08:52:57;;;;;;;6.60;4.97;;;;;;;2.59;99.24;95264.59;5099753;28;20515;-80
2021/01/01 08:55:23;;;;;;;6.97;4.40;;;;;;;2.57;99.03;95267.03;5100115;28;20410;-79
2021/01/01 08:57:50;;;;;;;8.23;5.20;;;;;;;2.73;98.59;95268.66;5085527;28;20552;-81
2021/01/01 09:00:17;;;;;;;6.70;4.50;;;;;;;2.69;98.37;95268.28;5082080;28;20541;-80
2021/01/01 09:02:46;;;;;;;6.03;4.07;;;;;;;2.67;98.01;95274.09;5080605;28;20442;-80
2021/01/01 09:05:13;;;;;;;5.90;4.37;;;;;;;2.74;98.16;95277.38;5081143;28;20436;-80
2021/01/01 09:07:39;;;;;;;6.20;4.00;;;;;;;2.84;97.87;95278.38;5081252;28;20441;-80
2021/01/01 09:10:16;;;;;;;5.23;3.83;;;;;;;2.77;97.18;95282.38;5080038;28;20442;-80
2021/01/01 09:12:43;;;;;;;4.37;3.30;;;;;;;2.70;97.24;95275.00;5080616;28;20492;-81
2021/01/01 09:15:11;;;;;;;5.50;3.77;;;;;;;2.68;97.16;95272.16;5079591;28;20450;-82
2021/01/01 09:17:37;;;;;;;5.47;3.30;;;;;;;2.76;97.03;95277.59;5078812;28;20531;-82
2021/01/01 09:20:05;;;;;;;3.77;2.73;;;;;;;2.84;95.64;95279.09;5079775;28;20457;-82
2021/01/01 09:22:33;;;;;;;5.47;3.63;;;;;;;2.93;95.08;95275.28;5079877;28;20469;-82
2021/01/01 09:25:18;;;;;;;4.83;3.07;;;;;;;2.88;94.56;95279.50;5079137;28;20465;-80
2021/01/01 09:27:45;;;;;;;3.80;2.53;;;;;;;2.82;95.26;95280.84;5078891;28;20911;-80
2021/01/01 09:30:14;;;;;;;4.13;3.03;;;;;;;2.87;94.76;95290.66;5078902;28;20460;-81
2021/01/01 09:32:43;;;;;;;5.50;3.13;;;;;;;2.79;94.52;95290.56;5079869;28;20460;-82
2021/01/01 09:35:11;;;;;;;5.80;3.47;;;;;;;2.95;94.86;95297.50;5075618;28;21007;-79
2021/01/01 09:37:38;;;;;;;5.10;3.17;;;;;;;2.91;94.06;95299.78;5075092;28;20533;-79
2021/01/01 09:40:05;;;;;;;4.70;3.60;;;;;;;2.95;93.85;95294.13;5075535;28;20441;-79
2021/01/01 09:42:32;;;;;;;4.93;3.37;;;;;;;3.00;94.18;95301.31;5075322;28;20444;-79
2021/01/01 09:44:58;;;;;;;4.17;2.70;;;;;;;3.07;93.77;95301.38;5078254;28;20498;-82
2021/01/01 09:47:24;;;;;;;3.80;3.23;;;;;;;3.20;93.19;95308.63;5079492;28;20449;-82
2021/01/01 09:49:51;;;;;;;7.13;5.00;;;;;;;3.20;92.46;95306.69;5079691;28;20460;-82
2021/01/01 09:52:17;;;;;;;5.60;3.80;;;;;;;3.30;92.42;95311.59;5078929;28;20457;-82
2021/01/01 09:54:44;;;;;;;3.97;3.23;;;;;;;3.43;91.36;95304.28;5079845;28;20426;-82
2021/01/01 09:57:11;;;;;;;4.20;3.37;;;;;;;3.36;90.77;95306.84;5080486;28;20543;-83
2021/01/01 09:59:37;;;;;;;5.60;3.20;;;;;;;3.34;91.28;95302.03;5080120;28;20509;-82
2021/01/01 10:02:04;;;;;;;5.37;3.10;;;;;;;3.33;91.27;95302.53;5077784;28;20495;-79
2021/01/01 10:04:30;;;;;;;5.57;3.70;;;;;;;3.35;90.70;95302.75;5078865;28;20514;-78
2021/01/01 10:06:56;;;;;;;4.60;3.30;;;;;;;3.41;91.05;95306.03;5078314;28;20846;-78
2021/01/01 10:09:23;;;;;;;4.40;2.50;;;;;;;3.53;90.01;95307.22;5078767;28;20533;-78
2021/01/01 10:11:50;;;;;;;5.40;3.33;;;;;;;3.54;89.97;95309.34;5079310;28;20819;-79
2021/01/01 10:14:17;;;;;;;5.40;3.67;;;;;;;3.66;90.42;95310.56;5076138;28;20449;-79
2021/01/01 10:16:47;;;;;;;6.10;3.50;;;;;;;3.68;89.76;95313.41;5086223;28;20488;-79
2021/01/01 10:19:13;;;;;;;4.23;3.17;;;;;;;3.67;89.97;95313.91;5096496;28;20454;-79
2021/01/01 10:21:40;;;;;;;4.20;2.93;;;;;;;3.74;88.93;95314.00;5096507;28;21040;-83
2021/01/01 10:24:07;;;;;;;4.47;2.97;;;;;;;3.72;88.34;95321.09;5099872;28;20853;-83
2021/01/01 10:26:33;;;;;;;3.53;2.80;;;;;;;3.82;86.62;95316.75;5099675;28;20523;-83
2021/01/01 10:29:00;;;;;;;4.50;2.73;;;;;;;3.70;87.10;95313.59;5099534;28;20431;-82
2021/01/01 10:31:27;;;;;;;5.37;3.57;;;;;;;3.67;88.30;95319.25;5100028;28;20555;-83
2021/01/01 10:33:53;;;;;;;5.30;3.07;;;;;;;3.78;87.91;95317.06;5099969;28;20456;-79
2021/01/01 10:36:19;;;;;;;3.87;2.83;;;;;;;3.84;88.01;95316.22;5097321;28;20448;-79
2021/01/01 10:38:46;;;;;;;4.20;2.63;;;;;;;3.97;86.94;95306.19;5100383;28;20456;-79
2021/01/01 10:41:13;;;;;;;6.07;3.50;;;;;;;3.90;85.44;95306.84;5100085;28;20553;-79
2021/01/01 10:43:39;;;;;;;4.50;3.30;;;;;;;3.57;85.33;95313.63;5100770;28;20440;-81
2021/01/01 10:46:07;;;;;;;4.77;3.20;;;;;;;3.56;84.82;95309.56;5104895;28;20519;-80
2021/01/01 10:48:33;;;;;;;5.70;3.23;;;;;;;3.52;85.68;95295.81;5104375;28;20448;-81
2021/01/01 10:50:59;;;;;;;6.00;3.47;;;;;;;3.50;87.03;95300.97;5104641;28;20437;-81
2021/01/01 10:53:26;;;;;;;7.30;4.43;;;;;;;3.52;88.15;95311.09;5101606;28;20490;-80
2021/01/01 10:55:52;;;;;;;4.70;3.30;;;;;;;3.43;88.19;95308.88;5100434;28;20444;-81
2021/01/01 10:58:23;;;;;;;4.50;3.30;;;;;;;3.43;88.30;95314.22;5101960;28;20484;-81
2021/01/01 11:00:51;;;;;;;5.07;2.87;;;;;;;3.54;87.74;95300.66;5103513;28;20493;-81
2021/01/01 11:03:18;;;;;;;4.50;3.80;;;;;;;3.65;86.63;95303.06;5101840;28;20472;-81
2021/01/01 11:05:45;;;;;;;5.03;3.23;;;;;;;3.57;86.37;95304.94;5102782;28;20535;-81
2021/01/01 11:08:11;;;;;;;5.03;3.23;;;;;;;3.55;86.60;95304.72;5102456;28;20786;-81
2021/01/01 11:10:38;;;;;;;4.90;3.20;;;;;;;3.56;86.16;95300.84;5104074;28;20515;-81
2021/01/01 11:13:05;;;;;;;3.97;3.13;;;;;;;3.48;86.41;95302.69;5104116;28;20460;-79
2021/01/01 12:24:46;;;;;;;4.60;2.80;;;;;;;4.11;81.70;95264.84;5100604;28;20381;-79
2021/01/01 12:27:17;;;;;;;4.37;2.93;;;;;;;4.02;82.10;95262.63;5119909;28;20444;-81
2021/01/01 12:29:45;;;;;;;5.37;3.60;;;;;;;3.95;82.93;95265.97;5120602;28;20411;-82
2021/01/01 12:32:13;;;;;;;3.50;2.20;;;;;;;3.91;82.76;95267.53;5120301;28;20448;-82
2021/01/01 12:34:39;;;;;;;4.40;3.20;;;;;;;3.88;82.68;95265.91;5119959;28;20438;-81
2021/01/01 12:37:06;;;;;;;3.43;3.07;;;;;;;3.91;82.64;95262.91;5106481;28;20468;-79
2021/01/01 12:39:33;;;;;;;4.13;2.90;;;;;;;3.94;82.92;95264.53;5099956;28;20451;-80